Time;durP1;ratioP1;P1;durP2;ratioP2;P2;SDS_P1;SDS_P2;PMS_P1;PMS_P2;Temp;Humidity;BMP_temperature;BMP_pressure;BME280_temperature;BME280_humidity;BME280_pressure;Samples;Min_cycle;Max_cycle;Signal;HPM_P1;HPM_P2
2022/10/21 00:00:53;;;;;;;4.00;2.13;;;-40.00;99.90;;;;;;5038524;28;20204;-72
2022/10/21 00:03:20;;;;;;;4.07;2.27;;;-40.00;99.90;;;;;;5032109;28;20211;-73
2022/10/21 00:05:46;;;;;;;5.83;2.20;;;-40.00;99.90;;;;;;5025467;28;20179;-72
2022/10/21 00:08:12;;;;;;;4.27;2.30;;;-40.00;99.90;;;;;;5030095;28;20244;-76
2022/10/21 00:10:37;;;;;;;2.40;1.53;;;-40.00;99.90;;;;;;5033421;28;20587;-75
2022/10/21 00:13:03;;;;;;;7.30;2.27;;;-40.00;99.90;;;;;;5026655;28;20184;-76
2022/10/21 00:15:29;;;;;;;4.77;2.27;;;-40.00;99.90;;;;;;5033954;28;20180;-74
2022/10/21 00:17:55;;;;;;;4.30;2.20;;;-40.00;99.90;;;;;;5037219;28;20271;-70
2022/10/21 00:20:20;;;;;;;1.43;1.30;;;-40.00;99.90;;;;;;5025424;28;20181;-71
2022/10/21 00:22:46;;;;;;;3.67;2.33;;;-40.00;99.90;;;;;;5026277;28;20736;-77
2022/10/21 00:25:12;;;;;;;5.30;2.37;;;-40.00;99.90;;;;;;5031019;28;20177;-73
2022/10/21 00:27:38;;;;;;;4.97;2.63;;;-40.00;99.90;;;;;;5028638;28;20207;-72
2022/10/21 00:30:05;;;;;;;4.40;2.13;;;-40.00;99.90;;;;;;5031983;28;20204;-70
2022/10/21 00:32:31;;;;;;;7.93;1.70;;;-40.00;99.90;;;;;;5038475;28;20287;-72
2022/10/21 00:34:57;;;;;;;2.37;2.00;;;-40.00;99.90;;;;;;5026925;28;20256;-72
2022/10/21 00:37:23;;;;;;;3.80;1.97;;;-40.00;99.90;;;;;;5038696;28;20592;-72
2022/10/21 00:39:51;;;;;;;2.67;2.30;;;-40.00;99.90;;;;;;5022494;28;20228;-73
2022/10/21 00:42:19;;;;;;;7.00;1.87;;;-40.00;99.90;;;;;;5036654;28;20513;-73
2022/10/21 00:45:22;;;;;;;4.17;1.60;;;-40.00;99.90;;;;;;5037214;28;20686;-74
2022/10/21 00:47:58;;;;;;;5.23;3.07;;;-40.00;99.90;;;;;;5016320;28;20239;-75
2022/10/21 00:50:33;;;;;;;1.83;1.50;;;-40.00;99.90;;;;;;5023300;28;20225;-72
2022/10/21 00:53:00;;;;;;;7.87;2.00;;;-40.00;99.90;;;;;;5032077;28;20184;-73
2022/10/21 00:55:29;;;;;;;3.47;2.30;;;-40.00;99.90;;;;;;5027510;28;20182;-78
2022/10/21 00:57:55;;;;;;;3.43;1.63;;;-40.00;99.90;;;;;;5031327;28;20204;-73
2022/10/21 01:00:21;;;;;;;14.97;2.77;;;-40.00;99.90;;;;;;5037462;28;20518;-73
2022/10/21 01:02:47;;;;;;;10.60;2.73;;;-40.00;99.90;;;;;;5037858;28;20202;-71
2022/10/21 01:05:13;;;;;;;16.50;2.87;;;-40.00;99.90;;;;;;5031377;28;20180;-75
2022/10/21 01:07:39;;;;;;;6.63;2.70;;;-40.00;99.90;;;;;;5027958;28;20197;-73
2022/10/21 01:10:05;;;;;;;6.77;2.53;;;-40.00;99.90;;;;;;5035329;28;20211;-72
2022/10/21 01:12:43;;;;;;;3.47;1.63;;;-39.60;99.90;;;;;;5024718;28;20181;-75
2022/10/21 01:15:30;;;;;;;4.40;1.90;;;-40.00;99.90;;;;;;5019389;28;20185;-75
2022/10/21 01:18:16;;;;;;;2.67;2.20;;;-31.10;99.90;;;;;;5032804;28;20201;-74
2022/10/21 01:21:24;;;;;;;1.80;1.70;;;-40.00;99.90;;;;;;5034175;28;20235;-75
2022/10/21 01:23:50;;;;;;;5.57;2.43;;;-40.00;99.90;;;;;;5029995;28;20200;-70
2022/10/21 01:26:24;;;;;;;5.77;3.20;;;-30.90;99.90;;;;;;5053102;28;20185;-78
2022/10/21 01:28:50;;;;;;;3.77;1.63;;;-38.10;99.90;;;;;;5036376;28;20588;-76
2022/10/21 01:31:45;;;;;;;13.37;1.90;;;-37.40;99.90;;;;;;5031319;28;20263;-77
2022/10/21 01:34:25;;;;;;;4.97;1.93;;;-33.20;99.90;;;;;;5028295;28;20597;-73
2022/10/21 01:37:18;;;;;;;7.07;2.47;;;-28.30;99.90;;;;;;5034053;28;20275;-75
2022/10/21 01:39:54;;;;;;;2.13;1.83;;;-34.70;99.90;;;;;;5017228;28;20600;-75
2022/10/21 01:43:00;;;;;;;10.63;2.30;;;-35.00;99.90;;;;;;5048856;28;20191;-74
2022/10/21 01:45:37;;;;;;;4.93;1.77;;;-34.50;99.90;;;;;;5032077;28;20203;-74
2022/10/21 01:48:10;;;;;;;3.67;2.37;;;-40.00;99.90;;;;;;5036957;28;20177;-76
2022/10/21 01:50:45;;;;;;;9.37;2.30;;;-37.90;99.90;;;;;;5031163;28;20232;-74
2022/10/21 01:53:14;;;;;;;6.50;2.50;;;-27.10;99.90;;;;;;5026483;28;20274;-74
2022/10/21 01:55:42;;;;;;;4.50;1.70;;;-29.20;99.90;;;;;;5035342;28;20223;-75
2022/10/21 01:58:18;;;;;;;3.70;1.73;;;-28.10;99.90;;;;;;5028150;28;20242;-74
2022/10/21 02:00:46;;;;;;;10.57;1.93;;;-34.40;99.90;;;;;;5031654;28;20203;-75
2022/10/21 02:03:18;;;;;;;3.87;2.20;;;-35.80;99.90;;;;;;5036299;28;20584;-75
2022/10/21 02:05:44;;;;;;;2.80;1.83;;;-39.40;99.90;;;;;;5020994;28;20184;-74
2022/10/21 02:08:10;;;;;;;8.73;1.87;;;-35.60;99.90;;;;;;5047138;28;20186;-74
2022/10/21 02:10:46;;;;;;;1.53;1.40;;;-32.20;99.90;;;;;;5032464;28;20716;-78
2022/10/21 02:13:19;;;;;;;5.60;1.70;;;-36.40;99.90;;;;;;5041071;28;20490;-76
2022/10/21 02:15:45;;;;;;;10.23;2.10;;;-38.00;99.90;;;;;;5031366;28;20490;-77
2022/10/21 02:18:24;;;;;;;7.97;2.30;;;-35.80;99.90;;;;;;5036251;28;20291;-78
2022/10/21 02:21:03;;;;;;;5.80;1.83;;;-33.20;99.90;;;;;;5031856;28;20486;-73
2022/10/21 02:23:47;;;;;;;16.87;2.20;;;-35.70;99.90;;;;;;5031624;28;20192;-74
2022/10/21 02:26:13;;;;;;;3.47;1.73;;;-39.60;99.90;;;;;;5022480;28;20184;-74
2022/10/21 02:28:39;;;;;;;16.63;2.40;;;-34.90;99.90;;;;;;5030331;28;20325;-76
2022/10/21 02:31:15;;;;;;;1.77;1.67;;;-28.20;99.90;;;;;;5036165;28;20283;-76
2022/10/21 02:33:46;;;;;;;16.63;2.90;;;-37.10;99.90;;;;;;5036274;28;20208;-76
2022/10/21 02:36:21;;;;;;;8.23;1.77;;;-33.10;99.90;;;;;;5024499;28;20181;-78
2022/10/21 02:38:52;;;;;;;5.30;2.20;;;-30.00;99.90;;;;;;5031851;28;20208;-75
2022/10/21 02:41:22;;;;;;;1.03;0.93;;;-32.20;99.90;;;;;;5021302;28;20271;-74
2022/10/21 02:43:54;;;;;;;4.17;2.03;;;-30.50;99.90;;;;;;5032459;28;20650;-75
2022/10/21 02:46:20;;;;;;;3.13;1.70;;;-27.50;99.90;;;;;;5035890;28;20592;-77
2022/10/21 02:48:47;;;;;;;4.07;2.20;;;-29.20;99.90;;;;;;5030209;28;20185;-76
2022/10/21 02:51:13;;;;;;;2.50;1.70;;;-29.50;99.90;;;;;;5028648;28;20484;-76
2022/10/21 02:53:40;;;;;;;4.50;1.40;;;-33.40;99.90;;;;;;5032130;28;20184;-75
2022/10/21 02:56:06;;;;;;;13.97;1.90;;;-27.20;99.90;;;;;;5028197;28;20188;-73
2022/10/21 02:58:32;;;;;;;5.77;1.93;;;-27.90;99.90;;;;;;5025773;28;20536;-75
2022/10/21 03:00:58;;;;;;;6.10;2.23;;;-27.50;99.90;;;;;;5025305;28;20814;-75
2022/10/21 03:03:24;;;;;;;11.60;2.93;;;-29.90;99.90;;;;;;5030244;28;20252;-75
2022/10/21 03:05:50;;;;;;;4.43;2.23;;;-24.90;99.90;;;;;;5035520;28;20176;-73
2022/10/21 03:08:16;;;;;;;5.07;2.33;;;-24.20;99.90;;;;;;5030377;28;20486;-75
2022/10/21 03:10:42;;;;;;;5.57;1.83;;;-23.80;99.90;;;;;;5035643;28;20190;-77
2022/10/21 03:13:08;;;;;;;5.00;2.37;;;-21.40;99.90;;;;;;5029146;28;20184;-69
2022/10/21 03:15:33;;;;;;;6.33;1.90;;;-25.40;99.90;;;;;;5021284;28;20195;-75
2022/10/21 03:17:59;;;;;;;3.20;1.83;;;-22.60;99.90;;;;;;5029765;28;20232;-74
2022/10/21 03:20:25;;;;;;;5.77;2.50;;;-25.00;99.90;;;;;;5029719;28;20174;-77
2022/10/21 03:22:51;;;;;;;13.63;2.87;;;-27.90;99.90;;;;;;5035158;28;20177;-75
2022/10/21 03:25:16;;;;;;;18.47;3.27;;;-25.60;99.90;;;;;;5035267;28;20226;-76
2022/10/21 03:27:42;;;;;;;5.70;2.57;;;-26.70;99.90;;;;;;5035089;28;20177;-75
2022/10/21 03:30:09;;;;;;;4.40;2.20;;;-31.50;99.90;;;;;;5035030;28;20187;-76
2022/10/21 03:32:35;;;;;;;5.13;2.03;;;-25.30;99.90;;;;;;5050834;28;20211;-74
2022/10/21 03:35:01;;;;;;;2.60;1.87;;;-22.30;99.90;;;;;;5033703;28;20212;-78
2022/10/21 03:37:26;;;;;;;6.30;2.30;;;-22.50;99.90;;;;;;5023956;28;20192;-77
2022/10/21 03:39:52;;;;;;;12.63;2.87;;;-24.50;99.90;;;;;;5024885;28;20180;-73
2022/10/21 03:42:18;;;;;;;9.07;2.37;;;-22.50;99.90;;;;;;5024892;28;20214;-77
2022/10/21 03:44:44;;;;;;;11.67;2.53;;;-22.30;99.90;;;;;;5026284;28;20182;-76
2022/10/21 03:47:09;;;;;;;6.13;2.70;;;-21.70;99.90;;;;;;5049362;28;20222;-74
2022/10/21 03:49:35;;;;;;;3.07;2.40;;;-23.80;99.90;;;;;;5035170;28;20235;-76
2022/10/21 03:52:01;;;;;;;3.40;2.43;;;-23.40;99.90;;;;;;5022848;28;20200;-75
2022/10/21 03:54:27;;;;;;;5.97;2.23;;;-27.70;99.90;;;;;;5042926;28;20188;-74
2022/10/21 03:56:52;;;;;;;3.27;2.30;;;-27.10;99.90;;;;;;5029783;28;20212;-75
2022/10/21 03:59:18;;;;;;;3.10;2.17;;;-25.30;99.90;;;;;;5023441;28;20263;-75
2022/10/21 04:01:44;;;;;;;9.10;3.03;;;-22.70;99.90;;;;;;5027716;28;20266;-75
2022/10/21 04:04:10;;;;;;;8.50;3.07;;;-21.40;99.90;;;;;;5034898;28;20180;-76
2022/10/21 04:06:35;;;;;;;5.37;2.27;;;-19.90;99.90;;;;;;5034106;28;20273;-74
2022/10/21 04:09:02;;;;;;;10.67;1.87;;;-20.30;99.90;;;;;;5030183;28;20256;-76
2022/10/21 04:11:28;;;;;;;21.13;3.33;;;-24.80;99.90;;;;;;5026125;28;20192;-74
2022/10/21 04:13:53;;;;;;;15.53;3.30;;;-23.10;99.90;;;;;;5023130;28;20177;-74
2022/10/21 04:16:20;;;;;;;4.27;2.53;;;-26.10;99.90;;;;;;5029771;28;20195;-77
2022/10/21 04:18:47;;;;;;;4.13;1.97;;;-28.60;99.90;;;;;;5037418;28;20635;-75
2022/10/21 04:21:13;;;;;;;5.17;1.83;;;-32.90;99.90;;;;;;5038301;28;20207;-76
2022/10/21 04:23:39;;;;;;;5.40;2.40;;;-29.60;99.90;;;;;;5034476;28;20197;-76
2022/10/21 04:26:06;;;;;;;5.63;1.47;;;-27.10;99.90;;;;;;5038803;28;20176;-76
2022/10/21 04:28:32;;;;;;;2.17;1.97;;;-27.20;99.90;;;;;;5029009;28;20455;-75
2022/10/21 04:30:57;;;;;;;5.47;2.03;;;-28.40;99.90;;;;;;5031439;28;20190;-74
2022/10/21 04:33:24;;;;;;;5.47;2.10;;;-29.60;99.90;;;;;;5038226;28;20715;-74
2022/10/21 04:35:49;;;;;;;2.10;1.80;;;-27.20;99.90;;;;;;5037788;28;20184;-77
2022/10/21 04:38:15;;;;;;;3.03;1.33;;;-29.50;99.90;;;;;;5029744;28;20212;-72
2022/10/21 04:40:41;;;;;;;8.60;2.33;;;-31.40;99.90;;;;;;5026290;28;20183;-72
2022/10/21 04:43:06;;;;;;;2.60;1.90;;;-27.90;99.90;;;;;;5037190;28;20181;-74
2022/10/21 04:45:32;;;;;;;5.43;3.03;;;-27.60;99.90;;;;;;5024165;28;20208;-77
2022/10/21 04:47:58;;;;;;;3.53;2.17;;;-36.90;99.90;;;;;;5032910;28;20189;-73
2022/10/21 04:50:24;;;;;;;5.73;2.10;;;-32.60;99.90;;;;;;5032483;28;20184;-75
2022/10/21 04:52:49;;;;;;;8.93;3.40;;;-30.20;99.90;;;;;;5030032;28;20195;-74
2022/10/21 04:55:15;;;;;;;5.07;2.23;;;-31.50;99.90;;;;;;5029129;28;20476;-75
2022/10/21 04:57:41;;;;;;;2.57;1.87;;;-28.50;99.90;;;;;;5028840;28;20184;-72
2022/10/21 05:00:07;;;;;;;4.70;2.93;;;-31.10;99.90;;;;;;5036837;28;20176;-72
2022/10/21 05:02:33;;;;;;;7.73;2.00;;;-33.00;99.90;;;;;;5033703;28;20296;-75
2022/10/21 05:04:59;;;;;;;5.27;1.93;;;-32.80;99.90;;;;;;5030331;28;20259;-72
2022/10/21 05:07:25;;;;;;;21.50;2.53;;;-37.70;99.90;;;;;;5045944;28;20207;-75
2022/10/21 05:09:50;;;;;;;6.10;2.07;;;-36.20;99.90;;;;;;5033334;28;20191;-73
2022/10/21 05:12:16;;;;;;;6.00;2.20;;;-31.10;99.90;;;;;;5037809;28;20203;-76
2022/10/21 05:14:42;;;;;;;6.97;1.70;;;-30.90;99.90;;;;;;5037408;28;20231;-76
2022/10/21 05:17:07;;;;;;;8.73;2.20;;;-29.70;99.90;;;;;;5037752;28;20180;-77
2022/10/21 05:19:33;;;;;;;11.20;2.33;;;-29.70;99.90;;;;;;5037214;28;20240;-75
2022/10/21 05:21:59;;;;;;;6.87;2.67;;;-28.70;99.90;;;;;;5037204;28;20184;-75
2022/10/21 05:24:25;;;;;;;2.40;1.63;;;-29.30;99.90;;;;;;5033957;28;20177;-75
2022/10/21 05:26:51;;;;;;;5.67;2.40;;;-31.90;99.90;;;;;;5035321;28;20180;-77
2022/10/21 05:29:17;;;;;;;4.10;2.20;;;-33.10;99.90;;;;;;5026832;28;20187;-77
2022/10/21 05:31:43;;;;;;;5.43;2.40;;;-36.90;99.90;;;;;;5025343;28;20221;-77
2022/10/21 05:34:09;;;;;;;8.77;1.93;;;-39.90;99.90;;;;;;5031418;28;20178;-75
2022/10/21 05:36:34;;;;;;;3.40;1.80;;;-40.00;99.90;;;;;;5028351;28;20227;-76
2022/10/21 05:39:01;;;;;;;6.40;3.13;;;-40.00;99.90;;;;;;5036845;28;20200;-74
2022/10/21 05:41:27;;;;;;;13.17;2.87;;;-32.20;99.90;;;;;;5029793;28;20180;-75
2022/10/21 05:43:52;;;;;;;9.40;2.70;;;-32.50;99.90;;;;;;5027920;28;20173;-76
2022/10/21 05:46:18;;;;;;;7.07;2.13;;;-33.40;99.90;;;;;;5027722;28;20183;-73
2022/10/21 05:48:44;;;;;;;5.90;2.20;;;-35.80;99.90;;;;;;5046221;28;20623;-76
2022/10/21 05:51:10;;;;;;;10.80;3.40;;;-34.00;99.90;;;;;;5024954;28;20265;-75
2022/10/21 05:53:35;;;;;;;17.63;2.27;;;-32.90;99.90;;;;;;5036878;28;20555;-77
2022/10/21 05:56:04;;;;;;;4.70;2.33;;;-27.80;99.90;;;;;;5052325;28;20643;-76
2022/10/21 05:58:31;;;;;;;3.57;1.83;;;-34.30;99.90;;;;;;5031016;28;20200;-76
2022/10/21 06:00:58;;;;;;;11.80;2.70;;;-39.60;99.90;;;;;;5031281;28;20236;-76
2022/10/21 06:03:29;;;;;;;4.40;2.37;;;-30.10;99.90;;;;;;5021369;28;20213;-73
2022/10/21 06:05:55;;;;;;;6.93;2.50;;;-33.90;99.90;;;;;;5029901;28;20599;-74
2022/10/21 06:08:22;;;;;;;6.77;1.97;;;-31.50;99.90;;;;;;5038122;28;20386;-70
2022/10/21 06:10:47;;;;;;;6.47;2.63;;;-31.80;99.90;;;;;;5039743;28;20184;-75
2022/10/21 06:13:13;;;;;;;7.30;3.30;;;-31.70;99.90;;;;;;5022066;28;20601;-71
2022/10/21 06:15:39;;;;;;;4.73;2.57;;;-38.10;99.90;;;;;;5041486;28;20276;-73
2022/10/21 06:18:05;;;;;;;7.33;2.00;;;-26.80;99.90;;;;;;5036037;28;20794;-74
2022/10/21 06:20:31;;;;;;;7.00;4.23;;;-38.00;99.90;;;;;;5036302;28;20211;-73
2022/10/21 06:23:00;;;;;;;7.70;3.40;;;-30.60;99.90;;;;;;5041235;28;20255;-71
2022/10/21 06:25:26;;;;;;;4.23;2.27;;;-40.00;99.90;;;;;;5034362;28;20180;-71
2022/10/21 06:27:52;;;;;;;13.63;3.17;;;-28.40;99.90;;;;;;5030427;28;20180;-75
2022/10/21 06:30:18;;;;;;;3.37;2.00;;;-24.50;99.90;;;;;;5027641;28;20188;-76
2022/10/21 06:32:44;;;;;;;6.17;2.70;;;-23.50;99.90;;;;;;5030023;28;20533;-74
2022/10/21 06:35:10;;;;;;;4.83;2.30;;;-31.30;99.90;;;;;;5030619;28;20235;-74
2022/10/21 06:37:36;;;;;;;7.63;3.60;;;-30.40;99.90;;;;;;5034879;28;20471;-69
2022/10/21 06:40:03;;;;;;;7.93;3.37;;;-38.40;99.90;;;;;;5031495;28;20201;-75
2022/10/21 06:42:29;;;;;;;8.67;3.00;;;-38.20;99.90;;;;;;5035478;28;20184;-76
2022/10/21 06:44:55;;;;;;;9.43;2.33;;;-40.00;99.90;;;;;;5033957;28;20231;-73
2022/10/21 06:47:21;;;;;;;7.70;2.90;;;-39.80;99.90;;;;;;5032552;28;20181;-73
2022/10/21 06:49:47;;;;;;;5.73;2.97;;;-40.00;99.90;;;;;;5032816;28;20557;-75
2022/10/21 06:52:12;;;;;;;5.50;2.57;;;-40.00;99.90;;;;;;5035702;28;20499;-71
2022/10/21 06:54:38;;;;;;;5.97;3.40;;;-40.00;99.90;;;;;;5032876;28;20259;-72
2022/10/21 06:57:04;;;;;;;15.03;3.77;;;-40.00;99.90;;;;;;5030346;28;20581;-75
2022/10/21 06:59:30;;;;;;;3.43;2.50;;;-40.00;99.90;;;;;;5030965;28;20208;-68
2022/10/21 07:01:55;;;;;;;5.90;2.80;;;-40.00;99.90;;;;;;5033944;28;20212;-68
2022/10/21 07:04:21;;;;;;;3.63;2.80;;;-40.00;99.90;;;;;;5033631;28;20199;-70
2022/10/21 07:06:48;;;;;;;5.90;2.73;;;-40.00;99.90;;;;;;5049608;28;20192;-70
2022/10/21 07:09:14;;;;;;;3.80;2.90;;;-40.00;99.90;;;;;;5035098;28;20199;-73
2022/10/21 07:11:40;;;;;;;11.33;2.47;;;-40.00;99.90;;;;;;5031828;28;20624;-70
2022/10/21 07:14:06;;;;;;;8.93;2.30;;;-40.00;99.90;;;;;;5034744;28;20631;-70
2022/10/21 07:16:34;;;;;;;8.07;2.90;;;-40.00;99.90;;;;;;5035108;28;20199;-70
2022/10/21 07:19:00;;;;;;;3.80;2.37;;;-40.00;99.90;;;;;;5017556;28;20223;-68
2022/10/21 07:21:28;;;;;;;2.47;1.93;;;-40.00;99.90;;;;;;5026959;28;20181;-71
2022/10/21 07:23:55;;;;;;;4.30;1.80;;;-40.00;99.90;;;;;;5034782;28;20585;-72
2022/10/21 07:26:22;;;;;;;14.60;4.20;;;-40.00;99.90;;;;;;5022130;28;20173;-73
2022/10/21 07:28:48;;;;;;;7.07;2.10;;;-40.00;99.90;;;;;;5026721;28;20581;-72
2022/10/21 07:31:16;;;;;;;5.33;2.47;;;-40.00;99.90;;;;;;5029559;28;20597;-71
2022/10/21 07:33:42;;;;;;;6.53;2.23;;;-40.00;99.90;;;;;;5034616;28;20552;-75
2022/10/21 07:36:11;;;;;;;5.43;2.53;;;-40.00;99.90;;;;;;5032515;28;20212;-73
2022/10/21 07:38:37;;;;;;;5.23;1.77;;;-40.00;99.90;;;;;;5035792;28;20216;-76
2022/10/21 07:41:04;;;;;;;6.60;2.77;;;-40.00;99.90;;;;;;5049833;28;20523;-76
2022/10/21 07:43:29;;;;;;;3.63;2.00;;;-40.00;99.90;;;;;;5017136;28;20272;-75
2022/10/21 07:45:57;;;;;;;5.53;2.10;;;-40.00;99.90;;;;;;5033364;28;20559;-78
2022/10/21 07:48:23;;;;;;;3.73;1.70;;;-40.00;99.90;;;;;;5040752;28;20529;-75
2022/10/21 07:50:50;;;;;;;4.57;2.07;;;-40.00;99.90;;;;;;5025199;28;20416;-73
2022/10/21 07:53:16;;;;;;;8.37;2.30;;;-40.00;99.90;;;;;;5053572;28;20617;-71
2022/10/21 07:55:42;;;;;;;2.17;1.87;;;-40.00;99.90;;;;;;5029725;28;20264;-72
2022/10/21 07:58:08;;;;;;;6.23;2.10;;;-40.00;99.90;;;;;;5049249;28;20224;-72
2022/10/21 08:00:34;;;;;;;8.37;1.90;;;-40.00;99.90;;;;;;5040873;28;20266;-71
2022/10/21 08:02:59;;;;;;;1.83;1.60;;;-40.00;99.90;;;;;;5022474;28;20185;-75
2022/10/21 08:05:28;;;;;;;3.30;1.70;;;-40.00;99.90;;;;;;5027366;28;20584;-76
2022/10/21 08:07:54;;;;;;;2.60;1.80;;;-40.00;99.90;;;;;;5027175;28;20185;-75
2022/10/21 08:10:20;;;;;;;1.87;1.33;;;-40.00;99.90;;;;;;5021459;28;20492;-76
2022/10/21 08:12:46;;;;;;;3.17;2.87;;;-40.00;99.90;;;;;;5032193;28;20189;-77
2022/10/21 08:15:11;;;;;;;3.83;1.80;;;-40.00;99.90;;;;;;5042813;28;20654;-73
2022/10/21 08:17:37;;;;;;;1.90;1.23;;;-40.00;99.90;;;;;;5034732;28;20193;-73
2022/10/21 08:20:03;;;;;;;8.57;1.67;;;-40.00;99.90;;;;;;5043229;28;20273;-77
2022/10/21 08:22:29;;;;;;;5.30;2.60;;;-40.00;99.90;;;;;;5046600;28;20272;-72
2022/10/21 08:24:55;;;;;;;1.97;1.60;;;-40.00;99.90;;;;;;5020560;28;20328;-76
2022/10/21 08:27:20;;;;;;;6.57;2.10;;;-40.00;99.90;;;;;;5050564;28;20219;-74
2022/10/21 08:29:47;;;;;;;3.93;1.90;;;-40.00;99.90;;;;;;5037618;28;20276;-72
2022/10/21 08:32:13;;;;;;;1.87;0.97;;;-40.00;99.90;;;;;;5032983;28;20272;-73
2022/10/21 08:34:39;;;;;;;2.13;1.47;;;-40.00;99.90;;;;;;5041150;28;20339;-71
2022/10/21 08:37:04;;;;;;;2.37;1.13;;;-40.00;99.90;;;;;;5030977;28;20181;-73
2022/10/21 08:39:30;;;;;;;2.20;1.47;;;-40.00;99.90;;;;;;5046345;28;20212;-73
2022/10/21 08:42:25;;;;;;;3.20;1.30;;;-40.00;99.90;;;;;;5031719;28;20184;-71
2022/10/21 08:45:05;;;;;;;1.77;1.17;;;-40.00;99.90;;;;;;5012380;28;20188;-72
2022/10/21 08:47:47;;;;;;;2.23;1.60;;;-40.00;99.90;;;;;;5052854;28;20607;-72
2022/10/21 08:50:19;;;;;;;1.73;1.20;;;-40.00;99.90;;;;;;5026340;28;20184;-74
2022/10/21 08:53:02;;;;;;;0.97;0.80;;;-40.00;99.90;;;;;;5020494;28;20182;-76
2022/10/21 08:55:32;;;;;;;2.73;1.47;;;-40.00;99.90;;;;;;5027746;28;20322;-72
2022/10/21 08:57:59;;;;;;;2.70;1.23;;;-40.00;99.90;;;;;;5049094;28;20209;-73
2022/10/21 09:00:56;;;;;;;1.97;1.13;;;-40.00;99.90;;;;;;5031443;28;20208;-74
2022/10/21 09:03:40;;;;;;;2.50;0.80;;;-40.00;99.90;;;;;;5028640;28;20215;-71
2022/10/21 09:06:06;;;;;;;3.53;1.10;;;-40.00;99.90;;;;;;5032837;28;20187;-75
2022/10/21 09:08:40;;;;;;;3.37;0.90;;;-40.00;99.90;;;;;;5032146;28;20203;-74
2022/10/21 09:11:42;;;;;;;1.77;1.30;;;-40.00;99.90;;;;;;5036131;28;20183;-72
2022/10/21 09:14:35;;;;;;;5.30;1.43;;;-40.00;99.90;;;;;;5028182;28;20573;-76
2022/10/21 09:17:17;;;;;;;1.83;0.90;;;-40.00;99.90;;;;;;5034549;28;20278;-75
2022/10/21 09:19:42;;;;;;;1.67;1.00;;;-40.00;99.90;;;;;;5046554;28;20216;-76
2022/10/21 09:22:18;;;;;;;1.63;0.70;;;-40.00;99.90;;;;;;5025421;28;20240;-73
2022/10/21 09:25:21;;;;;;;2.23;0.83;;;-40.00;99.90;;;;;;5031562;28;20526;-74
2022/10/21 09:27:47;;;;;;;1.03;0.73;;;-40.00;99.90;;;;;;5033268;28;20192;-75
2022/10/21 09:30:20;;;;;;;2.83;0.93;;;-40.00;99.90;;;;;;5035672;28;20280;-74
2022/10/21 09:32:49;;;;;;;1.37;0.70;;;-40.00;99.90;;;;;;5037303;28;20188;-73
2022/10/21 09:35:41;;;;;;;2.73;0.50;;;-40.00;99.90;;;;;;5034388;28;20185;-74
2022/10/21 09:38:09;;;;;;;1.90;0.50;;;-40.00;99.90;;;;;;5032465;28;20204;-74
2022/10/21 09:40:35;;;;;;;2.77;0.60;;;-40.00;99.90;;;;;;5024970;28;20573;-73
2022/10/21 09:43:02;;;;;;;4.90;0.73;;;-40.00;99.90;;;;;;5036123;28;20246;-70
2022/10/21 09:45:39;;;;;;;1.93;0.50;;;-40.00;99.90;;;;;;5027676;28;20433;-69
2022/10/21 09:48:16;;;;;;;0.43;0.30;;;-40.00;99.90;;;;;;5035865;28;20194;-75
2022/10/21 09:50:43;;;;;;;1.30;0.90;;;-40.00;99.90;;;;;;5036942;28;20220;-71
2022/10/21 09:53:41;;;;;;;0.90;0.73;;;-40.00;99.90;;;;;;5035440;28;20250;-71
2022/10/21 09:56:35;;;;;;;1.00;0.80;;;-40.00;99.90;;;;;;5010763;28;20224;-73
2022/10/21 09:59:10;;;;;;;4.93;0.40;;;-40.00;99.90;;;;;;5028009;28;20212;-71
2022/10/21 10:01:37;;;;;;;4.37;0.67;;;-40.00;99.90;;;;;;5035357;28;20214;-73
2022/10/21 10:04:10;;;;;;;2.30;0.90;;;-40.00;99.90;;;;;;5032893;28;20219;-68
2022/10/21 10:06:41;;;;;;;1.33;1.10;;;-40.00;99.90;;;;;;5035552;28;20185;-70
2022/10/21 10:09:26;;;;;;;0.67;0.60;;;-40.00;99.90;;;;;;5024123;28;20266;-70
2022/10/21 10:12:03;;;;;;;3.70;0.60;;;-40.00;99.90;;;;;;5029107;28;20191;-68
2022/10/21 10:14:33;;;;;;;1.80;0.60;;;-40.00;99.90;;;;;;5018812;28;20201;-70
2022/10/21 10:17:27;;;;;;;0.87;0.87;;;-40.00;99.90;;;;;;5017712;28;20193;-71
2022/10/21 10:20:11;;;;;;;0.73;0.70;;;-40.00;99.90;;;;;;5034597;28;20247;-73
2022/10/21 10:22:42;;;;;;;0.93;0.93;;;-40.00;99.90;;;;;;5032321;28;20648;-70
2022/10/21 10:25:13;;;;;;;0.80;0.60;;;-40.00;99.90;;;;;;5027164;28;20208;-72
2022/10/21 10:28:08;;;;;;;1.70;0.70;;;-40.00;99.90;;;;;;5025392;28;20217;-71
2022/10/21 10:30:36;;;;;;;3.30;0.60;;;-40.00;99.90;;;;;;5023671;28;20239;-71
2022/10/21 10:33:13;;;;;;;4.13;0.73;;;-40.00;99.90;;;;;;5030284;28;20192;-70
2022/10/21 10:35:46;;;;;;;3.50;0.60;;;-40.00;99.90;;;;;;5035981;28;20456;-70
2022/10/21 10:38:23;;;;;;;1.27;0.97;;;-40.00;99.90;;;;;;5044176;28;20217;-69
2022/10/21 10:40:50;;;;;;;1.60;0.80;;;-40.00;99.90;;;;;;5035898;28;20180;-69
2022/10/21 10:43:26;;;;;;;1.37;1.27;;;-40.00;99.90;;;;;;5028855;28;20195;-71
2022/10/21 10:46:32;;;;;;;1.10;0.77;;;-40.00;99.90;;;;;;5021626;28;20180;-71
2022/10/21 10:49:04;;;;;;;4.33;0.87;;;-40.00;99.90;;;;;;5033976;28;20291;-71
2022/10/21 10:51:33;;;;;;;2.53;0.70;;;-40.00;99.90;;;;;;5034422;28;20188;-69
2022/10/21 10:54:05;;;;;;;3.03;0.90;;;-40.00;99.90;;;;;;5034296;28;20227;-70
2022/10/21 10:56:40;;;;;;;1.87;0.97;;;-40.00;99.90;;;;;;5031498;28;20195;-69
2022/10/21 10:59:15;;;;;;;1.60;0.60;;;-40.00;99.90;;;;;;5031471;28;20235;-70
2022/10/21 11:02:08;;;;;;;1.30;1.00;;;-40.00;99.90;;;;;;5033967;28;20273;-70
2022/10/21 11:04:56;;;;;;;1.17;0.60;;;-40.00;99.90;;;;;;5035959;28;20207;-71
2022/10/21 11:07:32;;;;;;;4.63;0.87;;;-40.00;99.90;;;;;;5041787;28;20176;-74
2022/10/21 11:10:16;;;;;;;3.77;0.83;;;-40.00;99.90;;;;;;5025362;28;20191;-74
2022/10/21 11:12:41;;;;;;;0.77;0.77;;;-40.00;99.90;;;;;;5025598;28;20603;-73
2022/10/21 11:15:13;;;;;;;1.27;1.00;;;-40.00;99.90;;;;;;5025067;28;20189;-70
2022/10/21 11:17:43;;;;;;;2.20;1.70;;;-40.00;99.90;;;;;;5035505;28;20263;-73
2022/10/21 11:20:37;;;;;;;1.27;0.93;;;-40.00;99.90;;;;;;5035307;28;20483;-73
2022/10/21 11:23:44;;;;;;;2.30;1.67;;;-40.00;99.90;;;;;;5025245;28;20292;-72
2022/10/21 11:26:37;;;;;;;3.57;1.00;;;-40.00;99.90;;;;;;5028755;28;20622;-71
2022/10/21 11:29:06;;;;;;;1.73;0.80;;;-40.00;99.90;;;;;;5048043;28;20168;-73
2022/10/21 11:31:52;;;;;;;3.60;0.80;;;-40.00;99.90;;;;;;5052683;28;20591;-72
2022/10/21 11:34:25;;;;;;;0.70;0.67;;;-40.00;99.90;;;;;;5037621;28;20225;-73
2022/10/21 11:37:32;;;;;;;1.70;0.57;;;-40.00;99.90;;;;;;5025228;28;20184;-73
2022/10/21 11:40:18;;;;;;;1.33;1.10;;;-40.00;99.90;;;;;;5038692;28;20333;-73
2022/10/21 11:42:49;;;;;;;1.00;0.57;;;-40.00;99.90;;;;;;5036912;28;20255;-73
2022/10/21 11:45:20;;;;;;;2.80;0.70;;;-40.00;98.80;;;;;;5033318;28;20173;-72
2022/10/21 11:47:55;;;;;;;1.23;0.50;;;-40.00;97.30;;;;;;5056955;28;20177;-76
2022/10/21 11:50:43;;;;;;;2.07;0.63;;;-40.00;95.00;;;;;;5041627;28;20210;-72
2022/10/21 11:53:18;;;;;;;0.90;0.57;;;-40.00;94.00;;;;;;5034542;28;20169;-74
2022/10/21 11:56:08;;;;;;;0.73;0.60;;;-40.00;92.70;;;;;;5041131;28;20168;-72
2022/10/21 11:58:42;;;;;;;2.00;0.50;;;-40.00;91.20;;;;;;5023749;28;20229;-71
2022/10/21 12:01:11;;;;;;;3.13;1.30;;;-40.00;91.10;;;;;;5035862;28;20204;-71
2022/10/21 12:04:04;;;;;;;0.67;0.50;;;-40.00;90.60;;;;;;5041545;28;20680;-73
2022/10/21 12:06:42;;;;;;;3.17;1.27;;;-40.00;90.20;;;;;;5055716;28;20194;-71
2022/10/21 12:09:16;;;;;;;4.53;2.00;;;-40.00;87.90;;;;;;5030000;28;21115;-71
2022/10/21 12:12:10;;;;;;;1.20;0.70;;;-40.00;87.30;;;;;;5028885;28;20192;-70
2022/10/21 12:14:46;;;;;;;2.87;0.50;;;-40.00;87.60;;;;;;5010797;28;20197;-76
2022/10/21 12:17:17;;;;;;;2.20;0.70;;;-40.00;87.70;;;;;;5022156;28;20203;-71
2022/10/21 12:19:50;;;;;;;3.37;0.53;;;-40.00;83.80;;;;;;5040273;28;20227;-70
2022/10/21 12:22:17;;;;;;;4.60;2.40;;;-40.00;82.80;;;;;;5023272;28;20203;-74
2022/10/21 12:24:50;;;;;;;3.47;0.67;;;-40.00;83.20;;;;;;5031295;28;20180;-76
2022/10/21 12:27:30;;;;;;;1.37;0.50;;;-40.00;78.20;;;;;;5029795;28;20519;-73
2022/10/21 12:29:58;;;;;;;0.80;0.80;;;-40.00;81.00;;;;;;5034873;28;20220;-74
2022/10/21 12:32:40;;;;;;;1.60;0.50;;;-40.00;77.50;;;;;;5050873;28;20192;-70
2022/10/21 12:35:24;;;;;;;3.90;1.07;;;-40.00;71.80;;;;;;5039604;28;20191;-71
2022/10/21 12:37:50;;;;;;;0.70;0.70;;;-40.00;68.80;;;;;;5039310;28;20189;-69
2022/10/21 12:40:25;;;;;;;0.60;0.40;;;-40.00;69.00;;;;;;5026547;28;20481;-68
2022/10/21 12:43:04;;;;;;;2.13;0.40;;;-40.00;69.00;;;;;;5030597;28;20208;-73
2022/10/21 12:45:34;;;;;;;0.63;0.40;;;-40.00;67.20;;;;;;5036685;28;20179;-73
2022/10/21 12:48:04;;;;;;;0.60;0.50;;;-40.00;66.70;;;;;;5032323;28;20864;-72
2022/10/21 12:50:32;;;;;;;2.33;0.57;;;-40.00;66.90;;;;;;5034714;28;20180;-74
2022/10/21 12:53:28;;;;;;;0.83;0.50;;;-40.00;70.20;;;;;;5053030;28;20185;-68
2022/10/21 12:55:57;;;;;;;1.50;0.40;;;-40.00;71.10;;;;;;5038133;28;20169;-71